sensor_id;sensor_type;location;lat;lon;timestamp;temperature;humidity
18446;DHT22;9352;50.888;4.466;2024-03-02T00:01:36;6.90;99.90
18446;DHT22;9352;50.888;4.466;2024-03-02T00:04:05;6.90;99.90
18446;DHT22;9352;50.888;4.466;2024-03-02T00:06:33;6.90;99.90
18446;DHT22;9352;50.888;4.466;2024-03-02T00:09:00;6.80;99.90
18446;DHT22;9352;50.888;4.466;2024-03-02T00:11:26;6.80;99.90
18446;DHT22;9352;50.888;4.466;2024-03-02T00:13:54;6.80;99.90
18446;DHT22;9352;50.888;4.466;2024-03-02T00:16:21;6.80;99.90
18446;DHT22;9352;50.888;4.466;2024-03-02T00:18:49;6.80;99.90
18446;DHT22;9352;50.888;4.466;2024-03-02T00:21:17;6.80;99.90
18446;DHT22;9352;50.888;4.466;2024-03-02T00:23:48;6.80;99.90
18446;DHT22;9352;50.888;4.466;2024-03-02T00:26:17;6.70;99.90
18446;DHT22;9352;50.888;4.466;2024-03-02T00:28:44;6.70;99.90
18446;DHT22;9352;50.888;4.466;2024-03-02T00:31:12;6.70;99.90
18446;DHT22;9352;50.888;4.466;2024-03-02T00:33:42;6.70;99.90
18446;DHT22;9352;50.888;4.466;2024-03-02T00:36:09;6.70;99.90
18446;DHT22;9352;50.888;4.466;2024-03-02T00:38:44;6.70;99.90
18446;DHT22;9352;50.888;4.466;2024-03-02T00:41:17;6.70;99.90
18446;DHT22;9352;50.888;4.466;2024-03-02T00:43:47;6.70;99.90
18446;DHT22;9352;50.888;4.466;2024-03-02T00:46:16;6.70;99.90
18446;DHT22;9352;50.888;4.466;2024-03-02T00:48:50;6.70;99.90
18446;DHT22;9352;50.888;4.466;2024-03-02T00:51:18;6.80;99.90
18446;DHT22;9352;50.888;4.466;2024-03-02T00:53:46;6.80;99.90
18446;DHT22;9352;50.888;4.466;2024-03-02T00:56:14;6.80;99.90
18446;DHT22;9352;50.888;4.466;2024-03-02T00:58:41;6.80;99.90
18446;DHT22;9352;50.888;4.466;2024-03-02T01:01:08;6.80;99.90
18446;DHT22;9352;50.888;4.466;2024-03-02T01:03:35;6.80;99.90
18446;DHT22;9352;50.888;4.466;2024-03-02T01:06:03;6.70;99.90
18446;DHT22;9352;50.888;4.466;2024-03-02T01:08:30;6.70;99.90
18446;DHT22;9352;50.888;4.466;2024-03-02T01:10:58;6.70;99.90
18446;DHT22;9352;50.888;4.466;2024-03-02T01:13:26;6.70;99.90
18446;DHT22;9352;50.888;4.466;2024-03-02T01:15:53;6.70;99.90
18446;DHT22;9352;50.888;4.466;2024-03-02T01:18:20;6.70;99.90
18446;DHT22;9352;50.888;4.466;2024-03-02T01:20:47;6.70;99.90
18446;DHT22;9352;50.888;4.466;2024-03-02T01:23:17;6.80;99.90
18446;DHT22;9352;50.888;4.466;2024-03-02T01:25:45;6.80;99.90
18446;DHT22;9352;50.888;4.466;2024-03-02T01:28:13;6.80;99.90
18446;DHT22;9352;50.888;4.466;2024-03-02T01:30:40;6.80;99.90
18446;DHT22;9352;50.888;4.466;2024-03-02T01:33:07;6.80;99.90
18446;DHT22;9352;50.888;4.466;2024-03-02T01:35:34;6.70;99.90
18446;DHT22;9352;50.888;4.466;2024-03-02T01:38:01;6.70;99.90
18446;DHT22;9352;50.888;4.466;2024-03-02T01:40:28;6.70;99.90
18446;DHT22;9352;50.888;4.466;2024-03-02T01:42:55;6.70;99.90
18446;DHT22;9352;50.888;4.466;2024-03-02T01:45:25;6.70;99.90
18446;DHT22;9352;50.888;4.466;2024-03-02T01:47:52;6.70;99.90
18446;DHT22;9352;50.888;4.466;2024-03-02T01:50:25;6.70;99.90
18446;DHT22;9352;50.888;4.466;2024-03-02T01:52:52;6.70;99.90
18446;DHT22;9352;50.888;4.466;2024-03-02T01:55:19;6.70;99.90
18446;DHT22;9352;50.888;4.466;2024-03-02T01:57:46;6.80;99.90
18446;DHT22;9352;50.888;4.466;2024-03-02T02:00:15;6.80;99.90
18446;DHT22;9352;50.888;4.466;2024-03-02T02:02:43;6.80;99.90
18446;DHT22;9352;50.888;4.466;2024-03-02T02:05:10;6.80;99.90
18446;DHT22;9352;50.888;4.466;2024-03-02T02:07:38;6.90;99.90
18446;DHT22;9352;50.888;4.466;2024-03-02T02:10:05;6.90;99.90
18446;DHT22;9352;50.888;4.466;2024-03-02T02:12:33;6.90;99.90
18446;DHT22;9352;50.888;4.466;2024-03-02T02:15:00;6.90;99.90
18446;DHT22;9352;50.888;4.466;2024-03-02T02:17:27;6.90;99.90
18446;DHT22;9352;50.888;4.466;2024-03-02T02:19:55;7.00;99.90
18446;DHT22;9352;50.888;4.466;2024-03-02T02:22:23;7.00;99.90
18446;DHT22;9352;50.888;4.466;2024-03-02T02:24:50;7.00;99.90
18446;DHT22;9352;50.888;4.466;2024-03-02T02:27:17;7.00;99.90
18446;DHT22;9352;50.888;4.466;2024-03-02T02:29:44;7.00;99.90
18446;DHT22;9352;50.888;4.466;2024-03-02T02:32:11;7.00;99.90
18446;DHT22;9352;50.888;4.466;2024-03-02T02:34:38;7.00;99.90
18446;DHT22;9352;50.888;4.466;2024-03-02T02:37:05;7.00;99.90
18446;DHT22;9352;50.888;4.466;2024-03-02T02:39:33;7.00;99.90
18446;DHT22;9352;50.888;4.466;2024-03-02T02:42:00;7.00;99.90
18446;DHT22;9352;50.888;4.466;2024-03-02T02:44:28;7.10;99.90
18446;DHT22;9352;50.888;4.466;2024-03-02T02:46:55;7.00;99.90
18446;DHT22;9352;50.888;4.466;2024-03-02T02:49:22;7.10;99.90
18446;DHT22;9352;50.888;4.466;2024-03-02T02:51:49;7.00;99.90
18446;DHT22;9352;50.888;4.466;2024-03-02T02:54:16;7.10;99.90
18446;DHT22;9352;50.888;4.466;2024-03-02T02:56:44;7.00;99.90
18446;DHT22;9352;50.888;4.466;2024-03-02T02:59:11;7.00;99.90
18446;DHT22;9352;50.888;4.466;2024-03-02T03:01:38;6.90;99.90
18446;DHT22;9352;50.888;4.466;2024-03-02T03:04:05;6.90;99.90
18446;DHT22;9352;50.888;4.466;2024-03-02T03:06:32;6.80;99.90
18446;DHT22;9352;50.888;4.466;2024-03-02T03:08:59;6.80;99.90
18446;DHT22;9352;50.888;4.466;2024-03-02T03:11:26;6.70;99.90
18446;DHT22;9352;50.888;4.466;2024-03-02T03:13:54;6.70;99.90
18446;DHT22;9352;50.888;4.466;2024-03-02T03:16:21;6.60;99.90
18446;DHT22;9352;50.888;4.466;2024-03-02T03:18:48;6.60;99.90
18446;DHT22;9352;50.888;4.466;2024-03-02T03:21:17;6.50;99.90
18446;DHT22;9352;50.888;4.466;2024-03-02T03:23:44;6.40;99.90
18446;DHT22;9352;50.888;4.466;2024-03-02T03:26:11;6.40;99.90
18446;DHT22;9352;50.888;4.466;2024-03-02T03:28:38;6.30;99.90
18446;DHT22;9352;50.888;4.466;2024-03-02T03:31:06;6.30;99.90
18446;DHT22;9352;50.888;4.466;2024-03-02T03:33:33;6.30;99.90
18446;DHT22;9352;50.888;4.466;2024-03-02T03:36:00;6.30;99.90
18446;DHT22;9352;50.888;4.466;2024-03-02T03:38:28;6.30;99.90
18446;DHT22;9352;50.888;4.466;2024-03-02T03:40:55;6.40;99.90
18446;DHT22;9352;50.888;4.466;2024-03-02T03:43:22;6.40;99.90
18446;DHT22;9352;50.888;4.466;2024-03-02T03:45:49;6.50;99.90
18446;DHT22;9352;50.888;4.466;2024-03-02T03:48:16;6.50;99.90
18446;DHT22;9352;50.888;4.466;2024-03-02T03:50:44;6.60;99.90
18446;DHT22;9352;50.888;4.466;2024-03-02T03:53:11;6.60;99.90
18446;DHT22;9352;50.888;4.466;2024-03-02T03:55:38;6.60;99.90
18446;DHT22;9352;50.888;4.466;2024-03-02T03:58:04;6.60;99.90
18446;DHT22;9352;50.888;4.466;2024-03-02T04:00:31;6.60;99.90
18446;DHT22;9352;50.888;4.466;2024-03-02T04:02:58;6.60;99.90
18446;DHT22;9352;50.888;4.466;2024-03-02T04:05:26;6.60;99.90
18446;DHT22;9352;50.888;4.466;2024-03-02T04:07:53;6.60;99.90
18446;DHT22;9352;50.888;4.466;2024-03-02T04:10:20;6.50;99.90
18446;DHT22;9352;50.888;4.466;2024-03-02T04:12:49;6.60;99.90
18446;DHT22;9352;50.888;4.466;2024-03-02T04:15:16;6.60;99.90
18446;DHT22;9352;50.888;4.466;2024-03-02T04:17:44;6.60;99.90
18446;DHT22;9352;50.888;4.466;2024-03-02T04:20:11;6.50;99.90
18446;DHT22;9352;50.888;4.466;2024-03-02T04:22:40;6.50;99.90
18446;DHT22;9352;50.888;4.466;2024-03-02T04:25:08;6.40;99.90
18446;DHT22;9352;50.888;4.466;2024-03-02T04:27:35;6.30;99.90
18446;DHT22;9352;50.888;4.466;2024-03-02T04:30:02;6.30;99.90
18446;DHT22;9352;50.888;4.466;2024-03-02T04:32:30;6.30;99.90
18446;DHT22;9352;50.888;4.466;2024-03-02T04:34:57;6.20;99.90
18446;DHT22;9352;50.888;4.466;2024-03-02T04:37:24;6.20;99.90
18446;DHT22;9352;50.888;4.466;2024-03-02T04:39:52;6.20;99.90
18446;DHT22;9352;50.888;4.466;2024-03-02T04:42:19;6.20;99.90
18446;DHT22;9352;50.888;4.466;2024-03-02T04:44:46;6.10;99.90
18446;DHT22;9352;50.888;4.466;2024-03-02T04:47:13;6.10;99.90
18446;DHT22;9352;50.888;4.466;2024-03-02T04:49:40;6.10;99.90
18446;DHT22;9352;50.888;4.466;2024-03-02T04:52:07;6.00;99.90
18446;DHT22;9352;50.888;4.466;2024-03-02T04:54:34;6.00;99.90
18446;DHT22;9352;50.888;4.466;2024-03-02T04:57:23;6.10;99.90
18446;DHT22;9352;50.888;4.466;2024-03-02T04:59:49;6.00;99.90
18446;DHT22;9352;50.888;4.466;2024-03-02T05:02:16;6.00;99.90
18446;DHT22;9352;50.888;4.466;2024-03-02T05:04:43;6.00;99.90
18446;DHT22;9352;50.888;4.466;2024-03-02T05:07:10;5.90;99.90
18446;DHT22;9352;50.888;4.466;2024-03-02T05:09:37;5.90;99.90
18446;DHT22;9352;50.888;4.466;2024-03-02T05:12:05;5.80;99.90
18446;DHT22;9352;50.888;4.466;2024-03-02T05:14:52;5.70;99.90
18446;DHT22;9352;50.888;4.466;2024-03-02T05:17:19;5.70;99.90
18446;DHT22;9352;50.888;4.466;2024-03-02T05:19:46;5.70;99.90
18446;DHT22;9352;50.888;4.466;2024-03-02T05:22:13;5.60;99.90
18446;DHT22;9352;50.888;4.466;2024-03-02T05:24:40;5.60;99.90
18446;DHT22;9352;50.888;4.466;2024-03-02T05:27:07;5.60;99.90
18446;DHT22;9352;50.888;4.466;2024-03-02T05:29:34;5.60;99.90
18446;DHT22;9352;50.888;4.466;2024-03-02T05:32:02;5.60;99.90
18446;DHT22;9352;50.888;4.466;2024-03-02T05:34:29;5.50;99.90
18446;DHT22;9352;50.888;4.466;2024-03-02T05:36:58;5.50;99.90
18446;DHT22;9352;50.888;4.466;2024-03-02T05:39:25;5.50;99.90
18446;DHT22;9352;50.888;4.466;2024-03-02T05:41:52;5.50;99.90
18446;DHT22;9352;50.888;4.466;2024-03-02T05:44:18;5.40;99.90
18446;DHT22;9352;50.888;4.466;2024-03-02T05:46:46;5.40;99.90
18446;DHT22;9352;50.888;4.466;2024-03-02T05:49:14;5.40;99.90
18446;DHT22;9352;50.888;4.466;2024-03-02T05:51:41;5.40;99.90
18446;DHT22;9352;50.888;4.466;2024-03-02T05:54:08;5.40;99.90
18446;DHT22;9352;50.888;4.466;2024-03-02T05:56:35;5.30;99.90
18446;DHT22;9352;50.888;4.466;2024-03-02T05:59:02;5.30;99.90
18446;DHT22;9352;50.888;4.466;2024-03-02T06:01:38;5.30;99.90
18446;DHT22;9352;50.888;4.466;2024-03-02T06:04:05;5.30;99.90
18446;DHT22;9352;50.888;4.466;2024-03-02T06:06:33;5.30;99.90
18446;DHT22;9352;50.888;4.466;2024-03-02T06:09:00;5.20;99.90
18446;DHT22;9352;50.888;4.466;2024-03-02T06:11:28;5.20;99.90
18446;DHT22;9352;50.888;4.466;2024-03-02T06:13:55;5.20;99.90
18446;DHT22;9352;50.888;4.466;2024-03-02T06:16:22;5.20;99.90
18446;DHT22;9352;50.888;4.466;2024-03-02T06:18:49;5.20;99.90
18446;DHT22;9352;50.888;4.466;2024-03-02T06:21:17;5.20;99.90
18446;DHT22;9352;50.888;4.466;2024-03-02T06:23:46;5.20;99.90
18446;DHT22;9352;50.888;4.466;2024-03-02T06:26:13;5.20;99.90
18446;DHT22;9352;50.888;4.466;2024-03-02T06:28:39;5.20;99.90
18446;DHT22;9352;50.888;4.466;2024-03-02T06:31:06;5.30;99.90
18446;DHT22;9352;50.888;4.466;2024-03-02T06:33:33;5.30;99.90
18446;DHT22;9352;50.888;4.466;2024-03-02T06:36:00;5.30;99.90
18446;DHT22;9352;50.888;4.466;2024-03-02T06:38:26;5.30;99.90
18446;DHT22;9352;50.888;4.466;2024-03-02T06:40:54;5.30;99.90
18446;DHT22;9352;50.888;4.466;2024-03-02T06:43:21;5.30;99.90
18446;DHT22;9352;50.888;4.466;2024-03-02T06:45:48;5.30;99.90
18446;DHT22;9352;50.888;4.466;2024-03-02T06:48:15;5.30;99.90
18446;DHT22;9352;50.888;4.466;2024-03-02T06:50:45;5.20;99.90
18446;DHT22;9352;50.888;4.466;2024-03-02T06:53:12;5.30;99.90
18446;DHT22;9352;50.888;4.466;2024-03-02T06:55:39;5.30;99.90
18446;DHT22;9352;50.888;4.466;2024-03-02T06:58:07;5.30;99.90
18446;DHT22;9352;50.888;4.466;2024-03-02T07:00:34;5.30;99.90
18446;DHT22;9352;50.888;4.466;2024-03-02T07:03:01;5.30;99.90
18446;DHT22;9352;50.888;4.466;2024-03-02T07:05:28;5.30;99.90
18446;DHT22;9352;50.888;4.466;2024-03-02T07:07:54;5.40;99.90
18446;DHT22;9352;50.888;4.466;2024-03-02T07:10:21;5.40;99.90
18446;DHT22;9352;50.888;4.466;2024-03-02T07:12:48;5.40;99.90
18446;DHT22;9352;50.888;4.466;2024-03-02T07:15:16;5.50;99.90
18446;DHT22;9352;50.888;4.466;2024-03-02T07:18:09;5.50;99.90
18446;DHT22;9352;50.888;4.466;2024-03-02T07:20:36;5.60;99.90
18446;DHT22;9352;50.888;4.466;2024-03-02T07:23:04;5.60;99.90
18446;DHT22;9352;50.888;4.466;2024-03-02T07:25:32;5.70;99.90
18446;DHT22;9352;50.888;4.466;2024-03-02T07:27:59;5.70;99.90
18446;DHT22;9352;50.888;4.466;2024-03-02T07:30:27;5.80;99.90
18446;DHT22;9352;50.888;4.466;2024-03-02T07:32:54;5.80;99.90
18446;DHT22;9352;50.888;4.466;2024-03-02T07:35:21;5.90;99.90
18446;DHT22;9352;50.888;4.466;2024-03-02T07:37:52;5.90;99.90
18446;DHT22;9352;50.888;4.466;2024-03-02T07:40:19;6.00;99.90
18446;DHT22;9352;50.888;4.466;2024-03-02T07:42:46;6.10;99.90
18446;DHT22;9352;50.888;4.466;2024-03-02T07:45:13;6.20;99.90
18446;DHT22;9352;50.888;4.466;2024-03-02T07:47:41;6.30;99.90
18446;DHT22;9352;50.888;4.466;2024-03-02T07:50:09;6.40;99.90
18446;DHT22;9352;50.888;4.466;2024-03-02T07:52:35;6.50;99.90
18446;DHT22;9352;50.888;4.466;2024-03-02T07:55:03;6.50;99.90
18446;DHT22;9352;50.888;4.466;2024-03-02T07:57:31;6.60;99.90
18446;DHT22;9352;50.888;4.466;2024-03-02T07:59:58;6.60;99.90
18446;DHT22;9352;50.888;4.466;2024-03-02T08:02:25;6.70;99.90
18446;DHT22;9352;50.888;4.466;2024-03-02T08:04:53;6.80;99.90
18446;DHT22;9352;50.888;4.466;2024-03-02T08:07:20;6.90;99.90
18446;DHT22;9352;50.888;4.466;2024-03-02T08:09:47;7.00;99.90
18446;DHT22;9352;50.888;4.466;2024-03-02T08:12:14;7.10;99.90
18446;DHT22;9352;50.888;4.466;2024-03-02T08:14:41;7.20;99.90
18446;DHT22;9352;50.888;4.466;2024-03-02T08:17:08;7.30;99.90
18446;DHT22;9352;50.888;4.466;2024-03-02T08:19:37;7.40;99.90
18446;DHT22;9352;50.888;4.466;2024-03-02T08:22:05;7.50;99.90
18446;DHT22;9352;50.888;4.466;2024-03-02T08:24:33;7.70;99.90
18446;DHT22;9352;50.888;4.466;2024-03-02T08:27:00;7.80;99.90
18446;DHT22;9352;50.888;4.466;2024-03-02T08:29:27;7.90;99.90
18446;DHT22;9352;50.888;4.466;2024-03-02T08:31:54;7.90;99.90
18446;DHT22;9352;50.888;4.466;2024-03-02T08:34:20;8.10;99.90
18446;DHT22;9352;50.888;4.466;2024-03-02T08:36:47;8.30;99.90
18446;DHT22;9352;50.888;4.466;2024-03-02T08:39:15;8.70;99.90
18446;DHT22;9352;50.888;4.466;2024-03-02T08:41:44;9.10;99.90
18446;DHT22;9352;50.888;4.466;2024-03-02T08:44:11;9.60;99.90
18446;DHT22;9352;50.888;4.466;2024-03-02T08:46:39;10.10;99.90
18446;DHT22;9352;50.888;4.466;2024-03-02T08:49:06;10.50;99.90
18446;DHT22;9352;50.888;4.466;2024-03-02T08:51:33;11.00;99.90
18446;DHT22;9352;50.888;4.466;2024-03-02T08:54:00;11.30;99.90
18446;DHT22;9352;50.888;4.466;2024-03-02T08:56:28;11.60;99.90
18446;DHT22;9352;50.888;4.466;2024-03-02T08:58:55;11.90;99.90
18446;DHT22;9352;50.888;4.466;2024-03-02T09:01:22;12.00;99.90
18446;DHT22;9352;50.888;4.466;2024-03-02T09:03:49;12.10;99.90
18446;DHT22;9352;50.888;4.466;2024-03-02T09:06:16;12.10;99.90
18446;DHT22;9352;50.888;4.466;2024-03-02T09:08:45;12.20;99.90
18446;DHT22;9352;50.888;4.466;2024-03-02T09:11:12;12.30;99.90
18446;DHT22;9352;50.888;4.466;2024-03-02T09:13:40;12.70;99.90
18446;DHT22;9352;50.888;4.466;2024-03-02T09:16:08;12.90;99.90
18446;DHT22;9352;50.888;4.466;2024-03-02T09:18:36;12.90;99.90
18446;DHT22;9352;50.888;4.466;2024-03-02T09:21:04;12.90;99.90
18446;DHT22;9352;50.888;4.466;2024-03-02T09:23:31;12.50;99.90
18446;DHT22;9352;50.888;4.466;2024-03-02T09:25:58;12.10;99.90
18446;DHT22;9352;50.888;4.466;2024-03-02T09:28:25;11.80;99.90
18446;DHT22;9352;50.888;4.466;2024-03-02T09:30:53;11.80;99.90
18446;DHT22;9352;50.888;4.466;2024-03-02T09:33:20;11.80;99.90
18446;DHT22;9352;50.888;4.466;2024-03-02T09:35:47;11.80;99.90
18446;DHT22;9352;50.888;4.466;2024-03-02T09:38:15;11.80;99.90
18446;DHT22;9352;50.888;4.466;2024-03-02T09:40:42;11.60;99.90
18446;DHT22;9352;50.888;4.466;2024-03-02T09:43:10;11.50;99.90
18446;DHT22;9352;50.888;4.466;2024-03-02T09:45:37;11.60;99.90
18446;DHT22;9352;50.888;4.466;2024-03-02T09:48:07;12.00;99.90
18446;DHT22;9352;50.888;4.466;2024-03-02T09:50:37;12.30;99.90
18446;DHT22;9352;50.888;4.466;2024-03-02T09:53:04;12.50;99.90
18446;DHT22;9352;50.888;4.466;2024-03-02T09:55:35;12.50;99.90
18446;DHT22;9352;50.888;4.466;2024-03-02T09:58:02;12.40;99.90
18446;DHT22;9352;50.888;4.466;2024-03-02T10:00:29;12.40;99.90
18446;DHT22;9352;50.888;4.466;2024-03-02T10:02:56;12.50;99.90
18446;DHT22;9352;50.888;4.466;2024-03-02T10:05:26;12.50;99.90
18446;DHT22;9352;50.888;4.466;2024-03-02T10:08:00;12.40;99.90
18446;DHT22;9352;50.888;4.466;2024-03-02T10:11:05;12.60;99.90
18446;DHT22;9352;50.888;4.466;2024-03-02T10:14:05;12.70;99.90
18446;DHT22;9352;50.888;4.466;2024-03-02T10:19:58;13.10;99.90
18446;DHT22;9352;50.888;4.466;2024-03-02T10:22:26;12.90;99.90
18446;DHT22;9352;50.888;4.466;2024-03-02T10:24:53;13.00;99.90
18446;DHT22;9352;50.888;4.466;2024-03-02T10:27:23;13.10;99.90
18446;DHT22;9352;50.888;4.466;2024-03-02T10:29:53;13.20;99.90
18446;DHT22;9352;50.888;4.466;2024-03-02T10:32:22;13.20;99.90
18446;DHT22;9352;50.888;4.466;2024-03-02T10:34:50;13.00;99.90
18446;DHT22;9352;50.888;4.466;2024-03-02T10:37:17;12.90;99.90
18446;DHT22;9352;50.888;4.466;2024-03-02T10:39:46;12.90;99.90
18446;DHT22;9352;50.888;4.466;2024-03-02T10:42:14;13.10;99.90
18446;DHT22;9352;50.888;4.466;2024-03-02T10:44:42;13.10;99.90
18446;DHT22;9352;50.888;4.466;2024-03-02T10:47:12;13.00;99.90
18446;DHT22;9352;50.888;4.466;2024-03-02T10:49:41;13.10;99.90
18446;DHT22;9352;50.888;4.466;2024-03-02T10:52:08;13.20;99.90
18446;DHT22;9352;50.888;4.466;2024-03-02T10:54:35;13.10;99.90
18446;DHT22;9352;50.888;4.466;2024-03-02T10:57:07;13.20;99.90
18446;DHT22;9352;50.888;4.466;2024-03-02T10:59:36;13.70;99.90
18446;DHT22;9352;50.888;4.466;2024-03-02T11:02:05;13.80;99.90
18446;DHT22;9352;50.888;4.466;2024-03-02T11:04:34;13.80;99.90
18446;DHT22;9352;50.888;4.466;2024-03-02T11:07:03;14.00;99.90
18446;DHT22;9352;50.888;4.466;2024-03-02T11:09:33;14.50;99.90
18446;DHT22;9352;50.888;4.466;2024-03-02T11:12:03;14.70;99.90
18446;DHT22;9352;50.888;4.466;2024-03-02T11:14:32;14.60;99.90
18446;DHT22;9352;50.888;4.466;2024-03-02T11:17:01;14.30;99.90
18446;DHT22;9352;50.888;4.466;2024-03-02T11:19:29;14.00;99.90
18446;DHT22;9352;50.888;4.466;2024-03-02T11:21:57;14.00;99.90
18446;DHT22;9352;50.888;4.466;2024-03-02T11:24:31;14.30;99.90
18446;DHT22;9352;50.888;4.466;2024-03-02T11:26:59;14.70;99.90
18446;DHT22;9352;50.888;4.466;2024-03-02T11:29:46;14.90;99.90
18446;DHT22;9352;50.888;4.466;2024-03-02T11:32:16;15.20;99.90
18446;DHT22;9352;50.888;4.466;2024-03-02T11:34:44;15.50;99.90
18446;DHT22;9352;50.888;4.466;2024-03-02T11:37:13;15.70;99.90
18446;DHT22;9352;50.888;4.466;2024-03-02T11:39:40;15.80;99.90
18446;DHT22;9352;50.888;4.466;2024-03-02T11:42:07;16.00;99.90
18446;DHT22;9352;50.888;4.466;2024-03-02T11:44:36;16.10;99.90
18446;DHT22;9352;50.888;4.466;2024-03-02T11:47:06;15.80;99.90
18446;DHT22;9352;50.888;4.466;2024-03-02T11:49:37;15.50;99.90
18446;DHT22;9352;50.888;4.466;2024-03-02T11:52:05;15.20;99.90
18446;DHT22;9352;50.888;4.466;2024-03-02T11:54:33;15.10;99.90
18446;DHT22;9352;50.888;4.466;2024-03-02T11:57:02;15.10;99.90
18446;DHT22;9352;50.888;4.466;2024-03-02T11:59:29;15.70;99.90
18446;DHT22;9352;50.888;4.466;2024-03-02T12:01:57;16.10;99.90
18446;DHT22;9352;50.888;4.466;2024-03-02T12:04:26;16.80;99.90
18446;DHT22;9352;50.888;4.466;2024-03-02T12:06:57;17.60;99.90
18446;DHT22;9352;50.888;4.466;2024-03-02T12:09:26;17.30;99.90
18446;DHT22;9352;50.888;4.466;2024-03-02T12:12:04;16.90;99.90
18446;DHT22;9352;50.888;4.466;2024-03-02T12:14:32;16.60;99.90
18446;DHT22;9352;50.888;4.466;2024-03-02T12:16:59;16.30;99.90
18446;DHT22;9352;50.888;4.466;2024-03-02T12:19:29;15.90;99.90
18446;DHT22;9352;50.888;4.466;2024-03-02T12:21:57;15.60;99.90
18446;DHT22;9352;50.888;4.466;2024-03-02T12:24:26;15.40;99.90
18446;DHT22;9352;50.888;4.466;2024-03-02T12:26:53;15.40;99.90
18446;DHT22;9352;50.888;4.466;2024-03-02T12:29:21;15.40;99.90
18446;DHT22;9352;50.888;4.466;2024-03-02T12:31:48;15.50;99.90
18446;DHT22;9352;50.888;4.466;2024-03-02T12:34:16;15.60;99.90
18446;DHT22;9352;50.888;4.466;2024-03-02T12:36:46;15.50;99.90
18446;DHT22;9352;50.888;4.466;2024-03-02T12:39:15;15.40;99.90
18446;DHT22;9352;50.888;4.466;2024-03-02T12:41:42;15.20;99.90
18446;DHT22;9352;50.888;4.466;2024-03-02T12:44:09;15.00;99.90
18446;DHT22;9352;50.888;4.466;2024-03-02T12:46:36;14.90;99.90
18446;DHT22;9352;50.888;4.466;2024-03-02T12:49:08;14.90;99.90
18446;DHT22;9352;50.888;4.466;2024-03-02T12:51:37;14.80;99.90
18446;DHT22;9352;50.888;4.466;2024-03-02T12:54:07;14.70;99.90
18446;DHT22;9352;50.888;4.466;2024-03-02T12:56:35;14.80;99.90
18446;DHT22;9352;50.888;4.466;2024-03-02T12:59:03;14.70;99.90
18446;DHT22;9352;50.888;4.466;2024-03-02T13:01:30;15.20;99.90
18446;DHT22;9352;50.888;4.466;2024-03-02T13:03:58;15.40;99.90
18446;DHT22;9352;50.888;4.466;2024-03-02T13:06:26;15.80;99.90
18446;DHT22;9352;50.888;4.466;2024-03-02T13:08:55;15.90;99.90
18446;DHT22;9352;50.888;4.466;2024-03-02T13:11:23;16.00;99.90
18446;DHT22;9352;50.888;4.466;2024-03-02T13:13:51;15.80;99.90
18446;DHT22;9352;50.888;4.466;2024-03-02T13:16:18;15.70;99.90
18446;DHT22;9352;50.888;4.466;2024-03-02T13:18:46;15.60;99.90
18446;DHT22;9352;50.888;4.466;2024-03-02T13:21:13;15.40;99.90
18446;DHT22;9352;50.888;4.466;2024-03-02T13:23:40;15.30;99.90
18446;DHT22;9352;50.888;4.466;2024-03-02T13:26:07;15.20;99.90
18446;DHT22;9352;50.888;4.466;2024-03-02T13:28:37;15.30;99.90
18446;DHT22;9352;50.888;4.466;2024-03-02T13:31:04;15.50;99.90
18446;DHT22;9352;50.888;4.466;2024-03-02T13:33:32;15.60;99.90
18446;DHT22;9352;50.888;4.466;2024-03-02T13:35:59;15.60;99.90
18446;DHT22;9352;50.888;4.466;2024-03-02T13:38:27;15.50;99.90
18446;DHT22;9352;50.888;4.466;2024-03-02T13:40:54;15.30;99.90
18446;DHT22;9352;50.888;4.466;2024-03-02T13:43:21;15.10;99.90
18446;DHT22;9352;50.888;4.466;2024-03-02T13:45:50;15.00;99.90
18446;DHT22;9352;50.888;4.466;2024-03-02T13:48:19;14.80;99.90
18446;DHT22;9352;50.888;4.466;2024-03-02T13:50:46;14.90;99.90
18446;DHT22;9352;50.888;4.466;2024-03-02T13:53:13;14.90;99.90
18446;DHT22;9352;50.888;4.466;2024-03-02T13:55:40;14.80;99.90
18446;DHT22;9352;50.888;4.466;2024-03-02T13:58:08;14.70;99.90
18446;DHT22;9352;50.888;4.466;2024-03-02T14:00:35;14.70;99.90
18446;DHT22;9352;50.888;4.466;2024-03-02T14:03:05;14.70;99.90
18446;DHT22;9352;50.888;4.466;2024-03-02T14:05:33;14.50;99.90
18446;DHT22;9352;50.888;4.466;2024-03-02T14:08:00;14.40;99.90
18446;DHT22;9352;50.888;4.466;2024-03-02T14:10:27;14.40;99.90
18446;DHT22;9352;50.888;4.466;2024-03-02T14:12:54;14.40;99.90
18446;DHT22;9352;50.888;4.466;2024-03-02T14:15:22;14.30;99.90
18446;DHT22;9352;50.888;4.466;2024-03-02T14:17:49;14.20;99.90
18446;DHT22;9352;50.888;4.466;2024-03-02T14:20:17;14.20;99.90
18446;DHT22;9352;50.888;4.466;2024-03-02T14:22:48;14.10;99.90
18446;DHT22;9352;50.888;4.466;2024-03-02T14:25:15;14.10;99.90
18446;DHT22;9352;50.888;4.466;2024-03-02T14:27:42;14.10;99.90
18446;DHT22;9352;50.888;4.466;2024-03-02T14:30:09;14.20;99.90
18446;DHT22;9352;50.888;4.466;2024-03-02T14:32:36;14.10;99.90
18446;DHT22;9352;50.888;4.466;2024-03-02T14:35:04;14.10;99.90
18446;DHT22;9352;50.888;4.466;2024-03-02T14:37:32;14.10;99.90
18446;DHT22;9352;50.888;4.466;2024-03-02T14:39:59;14.00;99.90
18446;DHT22;9352;50.888;4.466;2024-03-02T14:42:26;13.90;99.90
18446;DHT22;9352;50.888;4.466;2024-03-02T14:44:57;13.90;99.90
18446;DHT22;9352;50.888;4.466;2024-03-02T14:47:24;13.80;99.90
18446;DHT22;9352;50.888;4.466;2024-03-02T14:49:51;13.90;99.90
18446;DHT22;9352;50.888;4.466;2024-03-02T14:52:18;14.10;99.90
18446;DHT22;9352;50.888;4.466;2024-03-02T14:54:46;14.10;99.90
18446;DHT22;9352;50.888;4.466;2024-03-02T14:57:13;14.10;99.90
18446;DHT22;9352;50.888;4.466;2024-03-02T14:59:40;14.10;99.90
18446;DHT22;9352;50.888;4.466;2024-03-02T15:02:08;14.20;99.90
18446;DHT22;9352;50.888;4.466;2024-03-02T15:04:35;14.10;99.90
18446;DHT22;9352;50.888;4.466;2024-03-02T15:07:02;14.00;99.90
18446;DHT22;9352;50.888;4.466;2024-03-02T15:09:29;13.80;99.90
18446;DHT22;9352;50.888;4.466;2024-03-02T15:11:57;13.80;99.90
18446;DHT22;9352;50.888;4.466;2024-03-02T15:14:24;13.70;99.90
18446;DHT22;9352;50.888;4.466;2024-03-02T15:16:51;13.50;99.90
18446;DHT22;9352;50.888;4.466;2024-03-02T15:19:18;13.50;99.90
18446;DHT22;9352;50.888;4.466;2024-03-02T15:21:45;13.40;99.90
18446;DHT22;9352;50.888;4.466;2024-03-02T15:24:12;13.30;99.90
18446;DHT22;9352;50.888;4.466;2024-03-02T15:26:39;13.20;99.90
18446;DHT22;9352;50.888;4.466;2024-03-02T15:29:07;13.10;99.90
18446;DHT22;9352;50.888;4.466;2024-03-02T15:31:34;13.10;99.90
18446;DHT22;9352;50.888;4.466;2024-03-02T15:34:01;13.10;99.90
18446;DHT22;9352;50.888;4.466;2024-03-02T15:36:28;13.00;99.90
18446;DHT22;9352;50.888;4.466;2024-03-02T15:38:55;12.90;99.90
18446;DHT22;9352;50.888;4.466;2024-03-02T15:41:22;13.00;99.90
18446;DHT22;9352;50.888;4.466;2024-03-02T15:43:49;13.00;99.90
18446;DHT22;9352;50.888;4.466;2024-03-02T15:46:17;12.90;99.90
18446;DHT22;9352;50.888;4.466;2024-03-02T15:48:44;13.00;99.90
18446;DHT22;9352;50.888;4.466;2024-03-02T15:51:11;13.10;99.90
18446;DHT22;9352;50.888;4.466;2024-03-02T15:53:40;13.10;99.90
18446;DHT22;9352;50.888;4.466;2024-03-02T15:56:07;13.20;99.90
18446;DHT22;9352;50.888;4.466;2024-03-02T15:58:33;13.20;99.90
18446;DHT22;9352;50.888;4.466;2024-03-02T16:01:01;13.10;99.90
18446;DHT22;9352;50.888;4.466;2024-03-02T16:03:30;13.10;99.90